sensor_id;sensor_type;location;lat;lon;timestamp;P1;durP1;ratioP1;P2;durP2;ratioP2
11893;SDS011;6006;49.696;8.662;2023-08-06T00:01:00;3.53;;;3.23;;
11893;SDS011;6006;49.696;8.662;2023-08-06T00:03:27;3.40;;;3.10;;
11893;SDS011;6006;49.696;8.662;2023-08-06T00:05:54;3.80;;;3.50;;
11893;SDS011;6006;49.696;8.662;2023-08-06T00:08:21;6.10;;;3.77;;
11893;SDS011;6006;49.696;8.662;2023-08-06T00:10:47;5.33;;;3.83;;
11893;SDS011;6006;49.696;8.662;2023-08-06T00:13:16;3.50;;;3.30;;
11893;SDS011;6006;49.696;8.662;2023-08-06T00:15:43;5.50;;;3.47;;
11893;SDS011;6006;49.696;8.662;2023-08-06T00:18:10;3.60;;;3.30;;
11893;SDS011;6006;49.696;8.662;2023-08-06T00:20:38;4.00;;;3.30;;
11893;SDS011;6006;49.696;8.662;2023-08-06T00:23:06;3.40;;;3.10;;
11893;SDS011;6006;49.696;8.662;2023-08-06T00:25:33;4.57;;;3.50;;
11893;SDS011;6006;49.696;8.662;2023-08-06T00:28:00;5.60;;;3.37;;
11893;SDS011;6006;49.696;8.662;2023-08-06T00:30:28;4.03;;;3.30;;
11893;SDS011;6006;49.696;8.662;2023-08-06T00:32:55;3.03;;;2.83;;
11893;SDS011;6006;49.696;8.662;2023-08-06T00:35:22;4.90;;;3.50;;
11893;SDS011;6006;49.696;8.662;2023-08-06T00:37:49;4.23;;;3.63;;
11893;SDS011;6006;49.696;8.662;2023-08-06T00:40:16;4.18;;;3.78;;
11893;SDS011;6006;49.696;8.662;2023-08-06T00:42:46;4.17;;;3.20;;
11893;SDS011;6006;49.696;8.662;2023-08-06T00:45:12;3.53;;;3.23;;
11893;SDS011;6006;49.696;8.662;2023-08-06T00:47:41;7.40;;;3.13;;
11893;SDS011;6006;49.696;8.662;2023-08-06T00:50:08;3.40;;;3.10;;
11893;SDS011;6006;49.696;8.662;2023-08-06T00:52:35;4.63;;;3.17;;
11893;SDS011;6006;49.696;8.662;2023-08-06T00:55:03;4.50;;;2.97;;
11893;SDS011;6006;49.696;8.662;2023-08-06T00:57:31;3.87;;;2.80;;
11893;SDS011;6006;49.696;8.662;2023-08-06T00:59:58;3.07;;;2.43;;
11893;SDS011;6006;49.696;8.662;2023-08-06T01:02:25;2.80;;;2.60;;
11893;SDS011;6006;49.696;8.662;2023-08-06T01:04:53;3.37;;;3.00;;
11893;SDS011;6006;49.696;8.662;2023-08-06T01:07:24;3.60;;;2.40;;
11893;SDS011;6006;49.696;8.662;2023-08-06T01:10:02;3.83;;;3.00;;
11893;SDS011;6006;49.696;8.662;2023-08-06T01:12:45;3.10;;;2.80;;
11893;SDS011;6006;49.696;8.662;2023-08-06T01:15:18;2.90;;;2.60;;
11893;SDS011;6006;49.696;8.662;2023-08-06T01:17:47;2.73;;;2.50;;
11893;SDS011;6006;49.696;8.662;2023-08-06T01:20:16;2.50;;;2.30;;
11893;SDS011;6006;49.696;8.662;2023-08-06T01:22:44;4.23;;;2.67;;
11893;SDS011;6006;49.696;8.662;2023-08-06T01:25:11;3.10;;;2.90;;
11893;SDS011;6006;49.696;8.662;2023-08-06T01:27:44;3.17;;;2.40;;
11893;SDS011;6006;49.696;8.662;2023-08-06T01:30:15;3.23;;;2.50;;
11893;SDS011;6006;49.696;8.662;2023-08-06T01:32:48;3.08;;;2.22;;
11893;SDS011;6006;49.696;8.662;2023-08-06T01:35:17;2.87;;;2.03;;
11893;SDS011;6006;49.696;8.662;2023-08-06T01:37:47;3.40;;;2.20;;
11893;SDS011;6006;49.696;8.662;2023-08-06T01:40:14;2.17;;;2.07;;
11893;SDS011;6006;49.696;8.662;2023-08-06T01:42:41;3.07;;;2.30;;
11893;SDS011;6006;49.696;8.662;2023-08-06T01:45:09;3.07;;;2.77;;
11893;SDS011;6006;49.696;8.662;2023-08-06T01:47:36;2.07;;;1.97;;
11893;SDS011;6006;49.696;8.662;2023-08-06T01:50:03;2.17;;;2.00;;
11893;SDS011;6006;49.696;8.662;2023-08-06T01:52:30;2.00;;;1.90;;
11893;SDS011;6006;49.696;8.662;2023-08-06T01:54:59;2.93;;;2.00;;
11893;SDS011;6006;49.696;8.662;2023-08-06T01:57:25;2.37;;;2.23;;
11893;SDS011;6006;49.696;8.662;2023-08-06T01:59:52;2.27;;;2.10;;
11893;SDS011;6006;49.696;8.662;2023-08-06T02:02:19;2.30;;;2.10;;
11893;SDS011;6006;49.696;8.662;2023-08-06T02:04:46;2.20;;;2.00;;
11893;SDS011;6006;49.696;8.662;2023-08-06T02:07:13;2.83;;;2.20;;
11893;SDS011;6006;49.696;8.662;2023-08-06T02:09:40;2.40;;;2.20;;
11893;SDS011;6006;49.696;8.662;2023-08-06T02:12:08;2.27;;;2.07;;
11893;SDS011;6006;49.696;8.662;2023-08-06T02:14:35;2.50;;;2.03;;
11893;SDS011;6006;49.696;8.662;2023-08-06T02:17:02;2.50;;;2.00;;
11893;SDS011;6006;49.696;8.662;2023-08-06T02:19:29;3.13;;;2.03;;
11893;SDS011;6006;49.696;8.662;2023-08-06T02:21:56;2.50;;;2.30;;
11893;SDS011;6006;49.696;8.662;2023-08-06T02:24:23;4.80;;;2.30;;
11893;SDS011;6006;49.696;8.662;2023-08-06T02:26:49;2.67;;;2.20;;
11893;SDS011;6006;49.696;8.662;2023-08-06T02:29:22;1.83;;;1.73;;
11893;SDS011;6006;49.696;8.662;2023-08-06T02:31:48;3.13;;;2.03;;
11893;SDS011;6006;49.696;8.662;2023-08-06T02:34:15;2.07;;;1.87;;
11893;SDS011;6006;49.696;8.662;2023-08-06T02:36:42;2.37;;;1.93;;
11893;SDS011;6006;49.696;8.662;2023-08-06T02:39:09;3.23;;;2.00;;
11893;SDS011;6006;49.696;8.662;2023-08-06T02:41:36;3.83;;;2.10;;
11893;SDS011;6006;49.696;8.662;2023-08-06T02:44:03;3.03;;;2.17;;
11893;SDS011;6006;49.696;8.662;2023-08-06T02:46:31;2.20;;;2.07;;
11893;SDS011;6006;49.696;8.662;2023-08-06T02:48:58;2.53;;;2.30;;
11893;SDS011;6006;49.696;8.662;2023-08-06T02:51:25;2.87;;;2.40;;
11893;SDS011;6006;49.696;8.662;2023-08-06T02:53:52;3.00;;;2.27;;
11893;SDS011;6006;49.696;8.662;2023-08-06T02:56:19;3.93;;;2.17;;
11893;SDS011;6006;49.696;8.662;2023-08-06T02:58:46;2.37;;;1.80;;
11893;SDS011;6006;49.696;8.662;2023-08-06T03:01:13;2.37;;;1.63;;
11893;SDS011;6006;49.696;8.662;2023-08-06T03:03:41;2.93;;;2.07;;
11893;SDS011;6006;49.696;8.662;2023-08-06T03:06:08;2.20;;;2.00;;
11893;SDS011;6006;49.696;8.662;2023-08-06T03:08:35;2.70;;;2.00;;
11893;SDS011;6006;49.696;8.662;2023-08-06T03:11:03;2.63;;;2.10;;
11893;SDS011;6006;49.696;8.662;2023-08-06T03:13:30;4.43;;;2.10;;
11893;SDS011;6006;49.696;8.662;2023-08-06T03:15:57;2.63;;;2.43;;
11893;SDS011;6006;49.696;8.662;2023-08-06T03:18:26;2.20;;;2.03;;
11893;SDS011;6006;49.696;8.662;2023-08-06T03:20:54;1.80;;;1.70;;
11893;SDS011;6006;49.696;8.662;2023-08-06T03:23:22;1.97;;;1.87;;
11893;SDS011;6006;49.696;8.662;2023-08-06T03:25:48;3.93;;;2.00;;
11893;SDS011;6006;49.696;8.662;2023-08-06T03:28:15;2.40;;;2.20;;
11893;SDS011;6006;49.696;8.662;2023-08-06T03:30:42;2.97;;;2.03;;
11893;SDS011;6006;49.696;8.662;2023-08-06T03:33:09;2.93;;;2.00;;
11893;SDS011;6006;49.696;8.662;2023-08-06T03:35:36;2.90;;;2.20;;
11893;SDS011;6006;49.696;8.662;2023-08-06T03:38:04;3.47;;;2.17;;
11893;SDS011;6006;49.696;8.662;2023-08-06T03:40:31;2.47;;;2.27;;
11893;SDS011;6006;49.696;8.662;2023-08-06T03:43:00;3.70;;;2.03;;
11893;SDS011;6006;49.696;8.662;2023-08-06T03:45:27;3.47;;;2.30;;
11893;SDS011;6006;49.696;8.662;2023-08-06T03:47:54;1.80;;;1.70;;
11893;SDS011;6006;49.696;8.662;2023-08-06T03:50:21;3.40;;;2.23;;
11893;SDS011;6006;49.696;8.662;2023-08-06T03:52:48;2.10;;;1.90;;
11893;SDS011;6006;49.696;8.662;2023-08-06T03:55:16;3.20;;;2.07;;
11893;SDS011;6006;49.696;8.662;2023-08-06T03:57:43;2.10;;;1.90;;
11893;SDS011;6006;49.696;8.662;2023-08-06T04:00:10;2.53;;;2.30;;
11893;SDS011;6006;49.696;8.662;2023-08-06T04:02:37;2.30;;;2.10;;
11893;SDS011;6006;49.696;8.662;2023-08-06T04:05:04;4.37;;;2.13;;
11893;SDS011;6006;49.696;8.662;2023-08-06T04:07:31;2.73;;;2.20;;
11893;SDS011;6006;49.696;8.662;2023-08-06T04:09:58;2.83;;;1.83;;
11893;SDS011;6006;49.696;8.662;2023-08-06T04:12:28;2.10;;;2.00;;
11893;SDS011;6006;49.696;8.662;2023-08-06T04:14:55;2.63;;;2.17;;
11893;SDS011;6006;49.696;8.662;2023-08-06T04:17:23;3.90;;;2.23;;
11893;SDS011;6006;49.696;8.662;2023-08-06T04:19:51;5.43;;;2.40;;
11893;SDS011;6006;49.696;8.662;2023-08-06T04:22:20;3.10;;;2.03;;
11893;SDS011;6006;49.696;8.662;2023-08-06T04:24:47;3.73;;;1.93;;
11893;SDS011;6006;49.696;8.662;2023-08-06T04:27:14;2.23;;;2.00;;
11893;SDS011;6006;49.696;8.662;2023-08-06T04:29:44;3.40;;;2.17;;
11893;SDS011;6006;49.696;8.662;2023-08-06T04:32:11;3.83;;;1.90;;
11893;SDS011;6006;49.696;8.662;2023-08-06T04:34:39;3.00;;;2.13;;
11893;SDS011;6006;49.696;8.662;2023-08-06T04:37:07;3.60;;;2.70;;
11893;SDS011;6006;49.696;8.662;2023-08-06T04:39:33;4.23;;;2.27;;
11893;SDS011;6006;49.696;8.662;2023-08-06T04:42:00;2.27;;;1.87;;
11893;SDS011;6006;49.696;8.662;2023-08-06T04:44:27;2.23;;;2.00;;
11893;SDS011;6006;49.696;8.662;2023-08-06T04:46:55;4.20;;;1.97;;
11893;SDS011;6006;49.696;8.662;2023-08-06T04:49:22;4.33;;;2.00;;
11893;SDS011;6006;49.696;8.662;2023-08-06T04:51:51;3.37;;;1.90;;
11893;SDS011;6006;49.696;8.662;2023-08-06T04:54:18;2.10;;;1.70;;
11893;SDS011;6006;49.696;8.662;2023-08-06T04:56:45;3.03;;;2.07;;
11893;SDS011;6006;49.696;8.662;2023-08-06T04:59:12;4.73;;;1.93;;
11893;SDS011;6006;49.696;8.662;2023-08-06T05:01:38;6.63;;;2.70;;
11893;SDS011;6006;49.696;8.662;2023-08-06T05:04:07;3.37;;;2.20;;
11893;SDS011;6006;49.696;8.662;2023-08-06T05:06:34;4.03;;;1.87;;
11893;SDS011;6006;49.696;8.662;2023-08-06T05:09:03;5.00;;;2.50;;
11893;SDS011;6006;49.696;8.662;2023-08-06T05:11:31;2.63;;;2.10;;
11893;SDS011;6006;49.696;8.662;2023-08-06T05:13:57;3.53;;;2.50;;
11893;SDS011;6006;49.696;8.662;2023-08-06T05:16:24;2.63;;;2.30;;
11893;SDS011;6006;49.696;8.662;2023-08-06T05:18:51;2.43;;;1.90;;
11893;SDS011;6006;49.696;8.662;2023-08-06T05:21:19;4.80;;;2.27;;
11893;SDS011;6006;49.696;8.662;2023-08-06T05:23:46;3.37;;;2.20;;
11893;SDS011;6006;49.696;8.662;2023-08-06T05:26:13;2.73;;;2.13;;
11893;SDS011;6006;49.696;8.662;2023-08-06T05:28:43;6.50;;;2.40;;
11893;SDS011;6006;49.696;8.662;2023-08-06T05:31:10;2.13;;;1.90;;
11893;SDS011;6006;49.696;8.662;2023-08-06T05:33:38;3.97;;;1.97;;
11893;SDS011;6006;49.696;8.662;2023-08-06T05:36:05;3.50;;;2.00;;
11893;SDS011;6006;49.696;8.662;2023-08-06T05:38:34;2.33;;;1.73;;
11893;SDS011;6006;49.696;8.662;2023-08-06T05:41:00;2.73;;;1.70;;
11893;SDS011;6006;49.696;8.662;2023-08-06T05:43:27;3.80;;;1.63;;
11893;SDS011;6006;49.696;8.662;2023-08-06T05:45:55;2.03;;;1.77;;
11893;SDS011;6006;49.696;8.662;2023-08-06T05:48:22;3.57;;;1.77;;
11893;SDS011;6006;49.696;8.662;2023-08-06T05:50:50;1.50;;;1.40;;
11893;SDS011;6006;49.696;8.662;2023-08-06T05:53:17;2.50;;;1.27;;
11893;SDS011;6006;49.696;8.662;2023-08-06T05:55:46;2.10;;;1.37;;
11893;SDS011;6006;49.696;8.662;2023-08-06T05:58:13;1.70;;;1.60;;
11893;SDS011;6006;49.696;8.662;2023-08-06T06:00:40;4.90;;;1.83;;
11893;SDS011;6006;49.696;8.662;2023-08-06T06:03:07;2.13;;;1.57;;
11893;SDS011;6006;49.696;8.662;2023-08-06T06:05:34;1.80;;;1.13;;
11893;SDS011;6006;49.696;8.662;2023-08-06T06:08:03;2.40;;;1.10;;
11893;SDS011;6006;49.696;8.662;2023-08-06T06:10:30;4.40;;;1.10;;
11893;SDS011;6006;49.696;8.662;2023-08-06T06:12:58;1.00;;;1.00;;
11893;SDS011;6006;49.696;8.662;2023-08-06T06:15:25;2.50;;;1.23;;
11893;SDS011;6006;49.696;8.662;2023-08-06T06:17:52;2.20;;;1.03;;
11893;SDS011;6006;49.696;8.662;2023-08-06T06:20:19;1.73;;;1.00;;
11893;SDS011;6006;49.696;8.662;2023-08-06T06:22:45;2.57;;;1.23;;
11893;SDS011;6006;49.696;8.662;2023-08-06T06:25:12;1.60;;;1.13;;
11893;SDS011;6006;49.696;8.662;2023-08-06T06:27:39;1.60;;;1.17;;
11893;SDS011;6006;49.696;8.662;2023-08-06T06:30:08;3.23;;;1.30;;
11893;SDS011;6006;49.696;8.662;2023-08-06T06:32:37;4.17;;;1.50;;
11893;SDS011;6006;49.696;8.662;2023-08-06T06:35:05;4.43;;;1.30;;
11893;SDS011;6006;49.696;8.662;2023-08-06T06:37:32;3.63;;;1.33;;
11893;SDS011;6006;49.696;8.662;2023-08-06T06:39:59;2.10;;;1.37;;
11893;SDS011;6006;49.696;8.662;2023-08-06T06:42:26;3.40;;;1.30;;
11893;SDS011;6006;49.696;8.662;2023-08-06T06:44:53;3.10;;;1.20;;
11893;SDS011;6006;49.696;8.662;2023-08-06T06:47:21;2.27;;;1.17;;
11893;SDS011;6006;49.696;8.662;2023-08-06T06:49:48;3.30;;;1.33;;
11893;SDS011;6006;49.696;8.662;2023-08-06T06:52:18;1.90;;;1.20;;
11893;SDS011;6006;49.696;8.662;2023-08-06T06:54:45;3.27;;;1.10;;
11893;SDS011;6006;49.696;8.662;2023-08-06T06:57:11;2.77;;;1.47;;
11893;SDS011;6006;49.696;8.662;2023-08-06T06:59:38;2.90;;;1.07;;
11893;SDS011;6006;49.696;8.662;2023-08-06T07:02:05;1.17;;;1.07;;
11893;SDS011;6006;49.696;8.662;2023-08-06T07:04:34;3.00;;;1.17;;
11893;SDS011;6006;49.696;8.662;2023-08-06T07:07:00;1.63;;;1.13;;
11893;SDS011;6006;49.696;8.662;2023-08-06T07:09:27;1.43;;;0.97;;
11893;SDS011;6006;49.696;8.662;2023-08-06T07:11:54;3.37;;;1.27;;
11893;SDS011;6006;49.696;8.662;2023-08-06T07:14:21;2.13;;;1.00;;
11893;SDS011;6006;49.696;8.662;2023-08-06T07:16:49;1.77;;;1.20;;
11893;SDS011;6006;49.696;8.662;2023-08-06T07:19:15;2.83;;;1.00;;
11893;SDS011;6006;49.696;8.662;2023-08-06T07:21:44;1.10;;;0.80;;
11893;SDS011;6006;49.696;8.662;2023-08-06T07:24:11;2.73;;;0.90;;
11893;SDS011;6006;49.696;8.662;2023-08-06T07:26:38;3.33;;;0.90;;
11893;SDS011;6006;49.696;8.662;2023-08-06T07:29:05;4.50;;;1.30;;
11893;SDS011;6006;49.696;8.662;2023-08-06T07:31:32;1.93;;;0.97;;
11893;SDS011;6006;49.696;8.662;2023-08-06T07:33:59;1.37;;;1.00;;
11893;SDS011;6006;49.696;8.662;2023-08-06T07:36:26;2.30;;;0.80;;
11893;SDS011;6006;49.696;8.662;2023-08-06T07:38:54;1.87;;;1.00;;
11893;SDS011;6006;49.696;8.662;2023-08-06T07:41:21;1.30;;;0.93;;
11893;SDS011;6006;49.696;8.662;2023-08-06T07:43:49;2.23;;;1.00;;
11893;SDS011;6006;49.696;8.662;2023-08-06T07:46:16;2.27;;;0.97;;
11893;SDS011;6006;49.696;8.662;2023-08-06T07:48:43;3.40;;;0.90;;
11893;SDS011;6006;49.696;8.662;2023-08-06T07:51:10;1.87;;;0.87;;
11893;SDS011;6006;49.696;8.662;2023-08-06T07:53:37;3.97;;;1.30;;
11893;SDS011;6006;49.696;8.662;2023-08-06T07:56:05;1.90;;;0.80;;
11893;SDS011;6006;49.696;8.662;2023-08-06T07:58:32;0.90;;;0.80;;
11893;SDS011;6006;49.696;8.662;2023-08-06T08:00:59;1.13;;;0.80;;
11893;SDS011;6006;49.696;8.662;2023-08-06T08:03:26;2.27;;;0.70;;
11893;SDS011;6006;49.696;8.662;2023-08-06T08:05:54;1.97;;;0.90;;
11893;SDS011;6006;49.696;8.662;2023-08-06T08:08:23;2.13;;;0.90;;
11893;SDS011;6006;49.696;8.662;2023-08-06T08:10:50;1.10;;;1.00;;
11893;SDS011;6006;49.696;8.662;2023-08-06T08:13:19;0.80;;;0.77;;
11893;SDS011;6006;49.696;8.662;2023-08-06T08:15:46;1.58;;;0.63;;
11893;SDS011;6006;49.696;8.662;2023-08-06T08:18:13;1.13;;;0.50;;
11893;SDS011;6006;49.696;8.662;2023-08-06T08:20:40;1.38;;;0.60;;
11893;SDS011;6006;49.696;8.662;2023-08-06T08:23:07;0.60;;;0.60;;
11893;SDS011;6006;49.696;8.662;2023-08-06T08:25:33;1.05;;;0.60;;
11893;SDS011;6006;49.696;8.662;2023-08-06T08:28:01;0.47;;;0.40;;
11893;SDS011;6006;49.696;8.662;2023-08-06T08:30:29;1.30;;;0.40;;
11893;SDS011;6006;49.696;8.662;2023-08-06T08:32:56;2.15;;;0.70;;
11893;SDS011;6006;49.696;8.662;2023-08-06T08:35:23;1.45;;;0.47;;
11893;SDS011;6006;49.696;8.662;2023-08-06T08:37:49;0.65;;;0.40;;
11893;SDS011;6006;49.696;8.662;2023-08-06T08:40:17;0.30;;;0.30;;
11893;SDS011;6006;49.696;8.662;2023-08-06T08:42:44;0.60;;;0.50;;
11893;SDS011;6006;49.696;8.662;2023-08-06T08:45:11;1.75;;;0.50;;
11893;SDS011;6006;49.696;8.662;2023-08-06T08:47:44;1.88;;;0.57;;
11893;SDS011;6006;49.696;8.662;2023-08-06T08:50:12;0.38;;;0.30;;
11893;SDS011;6006;49.696;8.662;2023-08-06T08:52:40;1.98;;;0.45;;
11893;SDS011;6006;49.696;8.662;2023-08-06T08:55:08;1.17;;;0.60;;
11893;SDS011;6006;49.696;8.662;2023-08-06T08:57:35;1.08;;;0.65;;
11893;SDS011;6006;49.696;8.662;2023-08-06T09:00:02;1.85;;;0.40;;
11893;SDS011;6006;49.696;8.662;2023-08-06T09:02:30;1.13;;;0.47;;
11893;SDS011;6006;49.696;8.662;2023-08-06T09:05:00;1.58;;;0.60;;
11893;SDS011;6006;49.696;8.662;2023-08-06T09:07:29;0.52;;;0.38;;
11893;SDS011;6006;49.696;8.662;2023-08-06T09:10:01;0.43;;;0.43;;
11893;SDS011;6006;49.696;8.662;2023-08-06T09:12:30;1.20;;;0.40;;
11893;SDS011;6006;49.696;8.662;2023-08-06T09:14:57;0.40;;;0.40;;
11893;SDS011;6006;49.696;8.662;2023-08-06T09:17:24;0.57;;;0.57;;
11893;SDS011;6006;49.696;8.662;2023-08-06T09:19:53;0.75;;;0.60;;
11893;SDS011;6006;49.696;8.662;2023-08-06T09:22:21;0.80;;;0.80;;
11893;SDS011;6006;49.696;8.662;2023-08-06T09:24:48;0.95;;;0.50;;
11893;SDS011;6006;49.696;8.662;2023-08-06T09:27:16;13.02;;;1.23;;
11893;SDS011;6006;49.696;8.662;2023-08-06T09:29:43;0.60;;;0.60;;
11893;SDS011;6006;49.696;8.662;2023-08-06T09:32:11;1.23;;;0.55;;
11893;SDS011;6006;49.696;8.662;2023-08-06T09:34:38;1.65;;;0.63;;
11893;SDS011;6006;49.696;8.662;2023-08-06T09:37:08;0.57;;;0.40;;
11893;SDS011;6006;49.696;8.662;2023-08-06T09:39:38;0.32;;;0.28;;
11893;SDS011;6006;49.696;8.662;2023-08-06T09:42:05;0.30;;;0.30;;
11893;SDS011;6006;49.696;8.662;2023-08-06T09:44:33;0.35;;;0.35;;
11893;SDS011;6006;49.696;8.662;2023-08-06T09:47:00;0.40;;;0.40;;
11893;SDS011;6006;49.696;8.662;2023-08-06T09:49:28;0.50;;;0.40;;
11893;SDS011;6006;49.696;8.662;2023-08-06T09:52:08;0.68;;;0.40;;
11893;SDS011;6006;49.696;8.662;2023-08-06T09:54:38;0.40;;;0.30;;
11893;SDS011;6006;49.696;8.662;2023-08-06T09:57:05;1.13;;;0.28;;
11893;SDS011;6006;49.696;8.662;2023-08-06T09:59:33;1.85;;;0.17;;
11893;SDS011;6006;49.696;8.662;2023-08-06T10:02:00;0.10;;;0.10;;
11893;SDS011;6006;49.696;8.662;2023-08-06T10:04:34;0.20;;;0.20;;
11893;SDS011;6006;49.696;8.662;2023-08-06T10:07:01;0.20;;;0.20;;
11893;SDS011;6006;49.696;8.662;2023-08-06T10:09:28;0.30;;;0.30;;
11893;SDS011;6006;49.696;8.662;2023-08-06T10:11:56;0.17;;;0.15;;
11893;SDS011;6006;49.696;8.662;2023-08-06T10:14:27;0.80;;;0.10;;
11893;SDS011;6006;49.696;8.662;2023-08-06T10:16:57;0.20;;;0.20;;
11893;SDS011;6006;49.696;8.662;2023-08-06T10:19:25;0.40;;;0.10;;
11893;SDS011;6006;49.696;8.662;2023-08-06T10:22:07;0.10;;;0.10;;
11893;SDS011;6006;49.696;8.662;2023-08-06T10:24:45;0.20;;;0.20;;
11893;SDS011;6006;49.696;8.662;2023-08-06T10:27:20;0.60;;;0.20;;
11893;SDS011;6006;49.696;8.662;2023-08-06T10:29:49;0.10;;;0.10;;
11893;SDS011;6006;49.696;8.662;2023-08-06T10:32:16;0.10;;;0.10;;
11893;SDS011;6006;49.696;8.662;2023-08-06T10:34:54;0.20;;;0.20;;
11893;SDS011;6006;49.696;8.662;2023-08-06T10:37:22;0.10;;;0.10;;
11893;SDS011;6006;49.696;8.662;2023-08-06T10:39:50;0.15;;;0.15;;
11893;SDS011;6006;49.696;8.662;2023-08-06T10:42:22;1.08;;;0.20;;
11893;SDS011;6006;49.696;8.662;2023-08-06T10:45:12;0.35;;;0.15;;
11893;SDS011;6006;49.696;8.662;2023-08-06T10:47:40;0.10;;;0.10;;
11893;SDS011;6006;49.696;8.662;2023-08-06T10:50:10;0.20;;;0.20;;
11893;SDS011;6006;49.696;8.662;2023-08-06T10:52:39;0.40;;;0.10;;
11893;SDS011;6006;49.696;8.662;2023-08-06T10:55:06;0.75;;;0.20;;
11893;SDS011;6006;49.696;8.662;2023-08-06T10:57:35;0.20;;;0.20;;
11893;SDS011;6006;49.696;8.662;2023-08-06T11:00:03;0.10;;;0.10;;
11893;SDS011;6006;49.696;8.662;2023-08-06T11:02:33;0.10;;;0.10;;
11893;SDS011;6006;49.696;8.662;2023-08-06T11:05:04;0.20;;;0.00;;
11893;SDS011;6006;49.696;8.662;2023-08-06T11:07:32;0.10;;;0.05;;
11893;SDS011;6006;49.696;8.662;2023-08-06T11:10:02;0.10;;;0.10;;
11893;SDS011;6006;49.696;8.662;2023-08-06T11:12:30;0.20;;;0.20;;
11893;SDS011;6006;49.696;8.662;2023-08-06T11:14:58;0.10;;;0.10;;
11893;SDS011;6006;49.696;8.662;2023-08-06T11:17:26;0.10;;;0.10;;
11893;SDS011;6006;49.696;8.662;2023-08-06T11:19:54;0.10;;;0.10;;
11893;SDS011;6006;49.696;8.662;2023-08-06T11:22:21;0.10;;;0.10;;
11893;SDS011;6006;49.696;8.662;2023-08-06T11:24:48;1.03;;;0.10;;
11893;SDS011;6006;49.696;8.662;2023-08-06T11:27:15;0.20;;;0.20;;
11893;SDS011;6006;49.696;8.662;2023-08-06T11:29:43;0.20;;;0.20;;
11893;SDS011;6006;49.696;8.662;2023-08-06T11:32:12;0.20;;;0.20;;
11893;SDS011;6006;49.696;8.662;2023-08-06T11:34:39;1.80;;;0.30;;
11893;SDS011;6006;49.696;8.662;2023-08-06T11:37:06;0.30;;;0.30;;
11893;SDS011;6006;49.696;8.662;2023-08-06T11:39:35;0.30;;;0.30;;
11893;SDS011;6006;49.696;8.662;2023-08-06T11:42:03;0.47;;;0.40;;
11893;SDS011;6006;49.696;8.662;2023-08-06T11:44:30;0.77;;;0.30;;
11893;SDS011;6006;49.696;8.662;2023-08-06T11:46:59;0.97;;;0.30;;
11893;SDS011;6006;49.696;8.662;2023-08-06T11:49:41;0.47;;;0.47;;
11893;SDS011;6006;49.696;8.662;2023-08-06T11:52:14;0.20;;;0.20;;
11893;SDS011;6006;49.696;8.662;2023-08-06T11:54:44;0.20;;;0.20;;
11893;SDS011;6006;49.696;8.662;2023-08-06T11:57:11;0.30;;;0.30;;
11893;SDS011;6006;49.696;8.662;2023-08-06T11:59:41;0.33;;;0.33;;
11893;SDS011;6006;49.696;8.662;2023-08-06T12:02:09;2.00;;;0.30;;
11893;SDS011;6006;49.696;8.662;2023-08-06T12:04:59;0.53;;;0.20;;
11893;SDS011;6006;49.696;8.662;2023-08-06T12:07:28;0.40;;;0.40;;
11893;SDS011;6006;49.696;8.662;2023-08-06T12:09:56;0.57;;;0.40;;
11893;SDS011;6006;49.696;8.662;2023-08-06T12:12:23;0.40;;;0.30;;
11893;SDS011;6006;49.696;8.662;2023-08-06T12:14:50;0.30;;;0.30;;
11893;SDS011;6006;49.696;8.662;2023-08-06T12:17:17;0.40;;;0.20;;
11893;SDS011;6006;49.696;8.662;2023-08-06T12:19:45;0.30;;;0.30;;
11893;SDS011;6006;49.696;8.662;2023-08-06T12:22:14;1.57;;;0.50;;
11893;SDS011;6006;49.696;8.662;2023-08-06T12:24:42;1.90;;;0.37;;
11893;SDS011;6006;49.696;8.662;2023-08-06T12:27:09;0.93;;;0.30;;
11893;SDS011;6006;49.696;8.662;2023-08-06T12:29:36;0.20;;;0.20;;
11893;SDS011;6006;49.696;8.662;2023-08-06T12:32:06;0.40;;;0.40;;
11893;SDS011;6006;49.696;8.662;2023-08-06T12:34:33;0.93;;;0.43;;
11893;SDS011;6006;49.696;8.662;2023-08-06T12:37:00;0.67;;;0.50;;
11893;SDS011;6006;49.696;8.662;2023-08-06T12:39:29;0.40;;;0.40;;
11893;SDS011;6006;49.696;8.662;2023-08-06T12:41:56;0.77;;;0.50;;
11893;SDS011;6006;49.696;8.662;2023-08-06T12:44:23;0.60;;;0.60;;
11893;SDS011;6006;49.696;8.662;2023-08-06T12:46:50;0.50;;;0.50;;
11893;SDS011;6006;49.696;8.662;2023-08-06T12:49:17;1.20;;;0.77;;
11893;SDS011;6006;49.696;8.662;2023-08-06T12:51:46;0.43;;;0.43;;
11893;SDS011;6006;49.696;8.662;2023-08-06T12:54:13;0.80;;;0.80;;
11893;SDS011;6006;49.696;8.662;2023-08-06T12:56:41;0.50;;;0.50;;
11893;SDS011;6006;49.696;8.662;2023-08-06T12:59:11;0.57;;;0.50;;
11893;SDS011;6006;49.696;8.662;2023-08-06T13:01:38;0.67;;;0.43;;
11893;SDS011;6006;49.696;8.662;2023-08-06T13:04:05;0.50;;;0.43;;
11893;SDS011;6006;49.696;8.662;2023-08-06T13:06:32;0.40;;;0.40;;
11893;SDS011;6006;49.696;8.662;2023-08-06T13:09:01;1.10;;;0.47;;
11893;SDS011;6006;49.696;8.662;2023-08-06T13:11:29;0.40;;;0.40;;
11893;SDS011;6006;49.696;8.662;2023-08-06T13:13:58;0.68;;;0.40;;
11893;SDS011;6006;49.696;8.662;2023-08-06T13:16:29;3.93;;;0.40;;
11893;SDS011;6006;49.696;8.662;2023-08-06T13:18:56;0.93;;;0.30;;
11893;SDS011;6006;49.696;8.662;2023-08-06T13:21:23;0.37;;;0.30;;
11893;SDS011;6006;49.696;8.662;2023-08-06T13:23:50;0.83;;;0.50;;
11893;SDS011;6006;49.696;8.662;2023-08-06T13:26:17;0.60;;;0.30;;
11893;SDS011;6006;49.696;8.662;2023-08-06T13:28:44;0.73;;;0.60;;
11893;SDS011;6006;49.696;8.662;2023-08-06T13:31:12;1.40;;;0.40;;
11893;SDS011;6006;49.696;8.662;2023-08-06T13:33:39;0.50;;;0.30;;
11893;SDS011;6006;49.696;8.662;2023-08-06T13:36:06;0.73;;;0.30;;
11893;SDS011;6006;49.696;8.662;2023-08-06T13:38:33;1.13;;;0.50;;
11893;SDS011;6006;49.696;8.662;2023-08-06T13:41:00;0.32;;;0.32;;
11893;SDS011;6006;49.696;8.662;2023-08-06T13:43:28;0.30;;;0.30;;
11893;SDS011;6006;49.696;8.662;2023-08-06T13:45:54;0.43;;;0.43;;
11893;SDS011;6006;49.696;8.662;2023-08-06T13:48:23;2.53;;;0.40;;
11893;SDS011;6006;49.696;8.662;2023-08-06T13:50:50;0.57;;;0.43;;
11893;SDS011;6006;49.696;8.662;2023-08-06T13:53:17;1.33;;;0.30;;
11893;SDS011;6006;49.696;8.662;2023-08-06T13:55:43;0.40;;;0.30;;
11893;SDS011;6006;49.696;8.662;2023-08-06T13:58:10;0.40;;;0.40;;
11893;SDS011;6006;49.696;8.662;2023-08-06T14:00:37;0.53;;;0.23;;
11893;SDS011;6006;49.696;8.662;2023-08-06T14:03:04;0.67;;;0.37;;
11893;SDS011;6006;49.696;8.662;2023-08-06T14:05:33;0.67;;;0.40;;
11893;SDS011;6006;49.696;8.662;2023-08-06T14:07:59;0.77;;;0.30;;
11893;SDS011;6006;49.696;8.662;2023-08-06T14:10:26;0.40;;;0.40;;
11893;SDS011;6006;49.696;8.662;2023-08-06T14:12:53;0.77;;;0.50;;
11893;SDS011;6006;49.696;8.662;2023-08-06T14:15:20;1.60;;;0.50;;
11893;SDS011;6006;49.696;8.662;2023-08-06T14:17:47;0.60;;;0.30;;
11893;SDS011;6006;49.696;8.662;2023-08-06T14:20:14;0.20;;;0.20;;
11893;SDS011;6006;49.696;8.662;2023-08-06T14:22:42;0.30;;;0.30;;
11893;SDS011;6006;49.696;8.662;2023-08-06T14:25:09;1.80;;;0.40;;
11893;SDS011;6006;49.696;8.662;2023-08-06T14:27:36;0.37;;;0.30;;
11893;SDS011;6006;49.696;8.662;2023-08-06T14:30:04;0.25;;;0.25;;
11893;SDS011;6006;49.696;8.662;2023-08-06T14:32:32;1.27;;;0.30;;
11893;SDS011;6006;49.696;8.662;2023-08-06T14:35:00;0.20;;;0.20;;
11893;SDS011;6006;49.696;8.662;2023-08-06T14:37:26;0.33;;;0.33;;
11893;SDS011;6006;49.696;8.662;2023-08-06T14:39:55;0.63;;;0.40;;
11893;SDS011;6006;49.696;8.662;2023-08-06T14:42:22;0.87;;;0.30;;
11893;SDS011;6006;49.696;8.662;2023-08-06T14:44:49;0.93;;;0.33;;
11893;SDS011;6006;49.696;8.662;2023-08-06T14:47:16;1.30;;;0.40;;
11893;SDS011;6006;49.696;8.662;2023-08-06T14:49:43;0.30;;;0.30;;
11893;SDS011;6006;49.696;8.662;2023-08-06T14:52:10;1.50;;;0.37;;
11893;SDS011;6006;49.696;8.662;2023-08-06T14:54:37;0.30;;;0.30;;
11893;SDS011;6006;49.696;8.662;2023-08-06T14:57:06;0.77;;;0.40;;
11893;SDS011;6006;49.696;8.662;2023-08-06T14:59:33;0.20;;;0.20;;
11893;SDS011;6006;49.696;8.662;2023-08-06T15:02:00;0.27;;;0.20;;
11893;SDS011;6006;49.696;8.662;2023-08-06T15:04:27;0.30;;;0.23;;